Time;durP1;ratioP1;P1;durP2;ratioP2;P2;SDS_P1;SDS_P2;PMS_P1;PMS_P2;Temp;Humidity;BMP_temperature;BMP_pressure;BME280_temperature;BME280_humidity;BME280_pressure;Samples;Min_cycle;Max_cycle;Signal;HPM_P1;HPM_P2
2022/06/03 00:03:14;;;;;;;10.20;9.90;;;13.50;99.90;;;;;;4992069;28;20229;-82
2022/06/03 00:06:42;;;;;;;10.20;9.90;;;13.40;99.90;;;;;;5003421;28;20247;-82
2022/06/03 00:09:48;;;;;;;10.20;9.90;;;13.40;99.90;;;;;;4999926;28;20244;-82
2022/06/03 00:13:00;;;;;;;10.10;9.80;;;13.40;99.90;;;;;;5004941;28;20237;-83
2022/06/03 00:15:56;;;;;;;10.40;10.10;;;13.30;99.90;;;;;;5009609;28;20216;-81
2022/06/03 00:19:11;;;;;;;10.30;10.00;;;13.10;99.90;;;;;;5015670;28;20237;-83
2022/06/03 00:22:31;;;;;;;10.40;10.10;;;13.10;99.90;;;;;;5010845;28;20236;-82
2022/06/03 00:25:45;;;;;;;10.30;10.00;;;13.10;99.90;;;;;;5003012;28;20328;-82
2022/06/03 00:28:58;;;;;;;10.20;9.90;;;13.10;99.90;;;;;;5006096;28;20248;-82
2022/06/03 00:31:56;;;;;;;10.10;9.80;;;13.10;99.90;;;;;;5002968;28;20261;-82
2022/06/03 00:34:58;;;;;;;10.10;9.80;;;13.00;99.90;;;;;;5011517;28;20268;-81
2022/06/03 00:37:37;;;;;;;9.90;9.60;;;12.90;99.90;;;;;;4996243;28;20284;-82
2022/06/03 00:40:24;;;;;;;9.77;9.47;;;12.90;99.90;;;;;;5014844;28;20225;-81
2022/06/03 00:43:19;;;;;;;9.90;9.60;;;12.90;99.90;;;;;;5012999;28;20283;-81
2022/06/03 00:46:42;;;;;;;10.00;9.70;;;12.90;99.90;;;;;;5012528;28;20232;-81
2022/06/03 00:50:04;;;;;;;10.50;10.20;;;13.00;99.90;;;;;;5019068;28;20213;-80
2022/06/03 00:53:26;;;;;;;10.70;10.40;;;12.90;99.90;;;;;;5016458;28;20205;-82
2022/06/03 00:56:43;;;;;;;10.20;9.90;;;12.80;99.90;;;;;;5020433;28;20225;-81
2022/06/03 00:59:47;;;;;;;10.10;9.80;;;12.70;99.90;;;;;;5003518;28;20217;-82
2022/06/03 01:02:31;;;;;;;10.07;9.77;;;12.60;99.90;;;;;;5019401;28;20301;-84
2022/06/03 01:05:18;;;;;;;10.23;9.93;;;12.40;99.90;;;;;;5021215;28;20215;-84
2022/06/03 01:08:17;;;;;;;10.10;9.80;;;12.40;99.90;;;;;;5021041;28;20224;-83
2022/06/03 01:11:10;;;;;;;10.07;9.77;;;12.40;99.90;;;;;;5020635;28;20220;-83
2022/06/03 01:13:59;;;;;;;9.93;9.63;;;12.40;99.90;;;;;;5019809;28;20237;-83
2022/06/03 01:17:01;;;;;;;10.30;10.00;;;12.50;99.90;;;;;;5020075;28;20218;-83
2022/06/03 01:20:00;;;;;;;10.20;9.90;;;12.50;99.90;;;;;;5020966;28;20216;-83
2022/06/03 01:23:12;;;;;;;10.17;9.87;;;12.50;99.90;;;;;;5020223;28;20261;-83
2022/06/03 01:29:48;;;;;;;10.00;9.70;;;12.50;99.90;;;;;;5137871;27;20515;-81
2022/06/03 01:33:00;;;;;;;9.83;9.53;;;12.50;99.90;;;;;;5118004;28;20235;-81
2022/06/03 01:36:34;;;;;;;10.20;9.90;;;12.50;99.90;;;;;;5109338;28;20293;-81
2022/06/03 01:39:44;;;;;;;10.10;9.80;;;12.40;99.90;;;;;;5085974;28;20324;-82
2022/06/03 01:43:08;;;;;;;10.10;9.80;;;12.40;99.90;;;;;;5103370;28;20279;-82
2022/06/03 01:46:20;;;;;;;10.43;10.13;;;12.40;99.90;;;;;;5102523;28;20237;-82
2022/06/03 01:49:42;;;;;;;10.17;9.87;;;12.40;99.90;;;;;;5096692;28;20252;-82
2022/06/03 01:52:55;;;;;;;10.23;9.93;;;12.40;99.90;;;;;;5102431;28;20249;-82
2022/06/03 01:56:11;;;;;;;10.20;9.90;;;12.40;99.90;;;;;;5075812;28;21082;-82
2022/06/03 01:59:41;;;;;;;10.40;10.10;;;12.40;99.90;;;;;;5101988;28;20940;-82
2022/06/03 02:02:56;;;;;;;10.10;9.80;;;12.50;99.90;;;;;;5100477;28;20277;-82
2022/06/03 02:06:26;;;;;;;10.10;9.80;;;12.50;99.90;;;;;;5100684;28;20229;-82
2022/06/03 02:09:51;;;;;;;10.00;9.70;;;12.50;99.90;;;;;;5100650;28;20247;-82
2022/06/03 02:13:21;;;;;;;10.27;9.97;;;12.50;99.90;;;;;;5038020;28;20235;-82
2022/06/03 02:16:42;;;;;;;10.03;9.73;;;12.50;99.90;;;;;;5100523;28;20249;-82
2022/06/03 02:19:28;;;;;;;9.97;9.67;;;12.40;99.90;;;;;;5101079;28;20317;-83
2022/06/03 02:22:24;;;;;;;9.93;9.63;;;12.40;99.90;;;;;;5101766;28;20221;-82
2022/06/03 02:25:37;;;;;;;9.93;9.63;;;12.40;99.90;;;;;;5100790;28;20329;-82
2022/06/03 02:31:56;;;;;;;10.10;9.80;;;12.40;99.90;;;;;;5061929;28;20414;-82
2022/06/03 02:35:01;;;;;;;9.97;9.67;;;12.40;99.90;;;;;;5110028;28;20236;-82
2022/06/03 02:38:16;;;;;;;9.80;9.50;;;12.30;99.90;;;;;;5097967;27;20261;-81
2022/06/03 02:41:30;;;;;;;9.93;9.63;;;12.30;99.90;;;;;;5089561;28;20221;-81
2022/06/03 02:44:34;;;;;;;9.90;9.60;;;12.30;99.90;;;;;;5088040;28;20225;-81
2022/06/03 02:48:02;;;;;;;10.70;10.40;;;12.20;99.90;;;;;;5088804;28;20233;-82
2022/06/03 02:51:10;;;;;;;10.27;9.97;;;12.20;99.90;;;;;;5046291;28;20254;-82
2022/06/03 02:54:39;;;;;;;10.57;10.27;;;12.20;99.90;;;;;;5088940;28;20333;-81
2022/06/03 02:57:45;;;;;;;10.57;10.27;;;12.20;99.90;;;;;;5088343;28;20256;-82
2022/06/03 03:00:33;;;;;;;10.67;10.37;;;12.30;99.90;;;;;;5087231;28;20340;-81
2022/06/03 03:03:45;;;;;;;10.73;10.43;;;12.30;99.90;;;;;;5090345;28;20245;-80
2022/06/03 03:06:48;;;;;;;10.80;10.50;;;12.30;99.90;;;;;;5090360;28;20225;-81
2022/06/03 03:09:44;;;;;;;10.80;10.50;;;12.10;99.90;;;;;;5098607;28;20218;-80
2022/06/03 03:13:05;;;;;;;10.63;10.33;;;12.10;99.90;;;;;;5098100;28;20238;-82
2022/06/03 03:16:21;;;;;;;10.70;10.40;;;12.20;99.90;;;;;;5091914;28;20320;-82
2022/06/03 03:19:50;;;;;;;11.00;10.70;;;12.30;99.90;;;;;;5090216;28;20291;-82
2022/06/03 03:23:15;;;;;;;10.90;10.60;;;12.30;99.90;;;;;;5065065;28;20225;-81
2022/06/03 03:26:00;;;;;;;10.37;10.07;;;12.40;99.90;;;;;;5027041;28;20283;-82
2022/06/03 03:29:14;;;;;;;10.50;10.20;;;12.40;99.90;;;;;;5088248;28;20234;-82
2022/06/03 03:32:09;;;;;;;10.50;10.20;;;12.40;99.90;;;;;;5087588;28;20329;-81
2022/06/03 03:35:06;;;;;;;10.60;10.30;;;12.40;99.90;;;;;;5087105;28;20248;-81
2022/06/03 03:38:29;;;;;;;10.30;10.00;;;12.50;99.90;;;;;;5065910;28;20249;-81
2022/06/03 03:41:50;;;;;;;10.20;9.90;;;12.50;99.90;;;;;;5081171;28;20278;-82
2022/06/03 03:45:13;;;;;;;10.20;9.90;;;12.60;99.90;;;;;;5086155;28;20288;-82
2022/06/03 03:51:46;;;;;;;10.13;9.83;;;12.60;99.90;;;;;;5063917;28;20237;-82
2022/06/03 03:54:51;;;;;;;10.30;10.00;;;12.60;99.90;;;;;;5086063;28;20309;-82
2022/06/03 03:58:08;;;;;;;10.50;10.20;;;12.70;99.90;;;;;;5086714;28;20284;-81
2022/06/03 04:01:37;;;;;;;10.60;10.30;;;12.70;99.90;;;;;;5086755;28;20280;-83
2022/06/03 04:05:11;;;;;;;10.60;10.30;;;12.80;99.90;;;;;;5052297;28;20234;-82
2022/06/03 04:08:23;;;;;;;10.70;10.40;;;12.80;99.90;;;;;;5086629;28;20245;-82
2022/06/03 04:11:45;;;;;;;10.40;10.10;;;12.80;99.90;;;;;;5054213;28;20223;-82
2022/06/03 04:15:15;;;;;;;10.50;10.20;;;12.90;99.90;;;;;;5086804;28;20237;-82
2022/06/03 04:18:20;;;;;;;10.60;10.30;;;12.90;99.90;;;;;;5087676;28;20240;-82
2022/06/03 04:21:32;;;;;;;10.60;10.30;;;13.00;99.90;;;;;;5087851;28;20257;-81
2022/06/03 04:24:55;;;;;;;10.37;10.07;;;13.10;99.90;;;;;;5087030;28;20274;-81
2022/06/03 04:28:17;;;;;;;10.50;10.20;;;13.20;99.90;;;;;;5055500;28;20230;-81
2022/06/03 04:32:06;;;;;;;10.40;10.10;;;13.40;99.90;;;;;;5088456;28;20230;-82
2022/06/03 04:35:30;;;;;;;10.10;9.80;;;13.50;99.90;;;;;;5088234;28;20268;-82
2022/06/03 04:39:00;;;;;;;10.30;10.00;;;13.60;99.90;;;;;;5090486;22;20264;-80
2022/06/03 04:42:15;;;;;;;10.40;10.10;;;13.80;99.90;;;;;;5040625;28;20255;-81
2022/06/03 04:45:46;;;;;;;10.20;9.90;;;13.90;99.90;;;;;;5049200;28;20329;-81
2022/06/03 04:49:11;;;;;;;10.47;10.17;;;14.10;99.90;;;;;;5022643;28;20239;-81
2022/06/03 04:52:38;;;;;;;10.63;10.33;;;14.20;99.90;;;;;;5036655;28;20231;-81
2022/06/03 04:55:56;;;;;;;10.37;10.07;;;14.30;99.90;;;;;;4991121;28;20291;-81
2022/06/03 04:59:31;;;;;;;10.57;10.27;;;14.50;99.90;;;;;;5021476;28;20240;-81
2022/06/03 05:03:22;;;;;;;10.70;10.40;;;14.60;99.90;;;;;;5021146;28;20266;-80
2022/06/03 05:06:48;;;;;;;10.80;10.50;;;14.70;99.90;;;;;;4979801;28;20324;-80
2022/06/03 05:10:02;;;;;;;11.10;10.80;;;14.90;99.90;;;;;;4962693;28;20567;-87
2022/06/03 05:13:42;;;;;;;10.52;10.23;;;15.00;99.90;;;;;;5033954;28;20254;-86
2022/06/03 05:17:14;;;;;;;10.40;10.10;;;15.20;99.90;;;;;;5017764;28;20258;-86
2022/06/03 05:20:44;;;;;;;10.75;10.45;;;15.50;99.90;;;;;;5021188;28;20266;-86
2022/06/03 05:23:57;;;;;;;10.40;10.10;;;15.60;99.90;;;;;;5022121;28;20235;-86
2022/06/03 05:27:39;;;;;;;10.40;10.10;;;15.80;99.90;;;;;;5023245;28;20235;-86
2022/06/03 05:30:51;;;;;;;10.65;10.35;;;15.90;99.90;;;;;;5039604;28;20227;-85
2022/06/03 05:34:04;;;;;;;10.65;10.35;;;16.10;99.90;;;;;;5039674;28;20251;-85
2022/06/03 05:37:17;;;;;;;10.77;10.48;;;16.10;99.90;;;;;;5038711;28;20201;-85
2022/06/03 05:40:17;;;;;;;10.70;10.40;;;16.10;99.90;;;;;;5039827;28;20216;-85
2022/06/03 05:43:38;;;;;;;10.52;10.23;;;16.20;99.90;;;;;;5039636;28;20212;-84
2022/06/03 05:46:14;;;;;;;10.68;10.38;;;16.30;99.90;;;;;;5033453;28;20227;-86
2022/06/03 05:49:03;;;;;;;10.65;10.35;;;16.50;99.90;;;;;;5039989;28;20215;-84
2022/06/03 05:51:47;;;;;;;10.35;10.05;;;16.50;99.90;;;;;;5040269;28;20257;-84
2022/06/03 05:54:36;;;;;;;10.32;10.02;;;16.50;99.90;;;;;;5038794;28;20231;-84
2022/06/03 05:57:18;;;;;;;10.30;10.00;;;16.60;99.90;;;;;;5051311;28;20238;-85
2022/06/03 06:00:10;;;;;;;10.57;10.27;;;16.60;99.90;;;;;;5070519;28;20207;-84
2022/06/03 06:02:44;;;;;;;10.45;10.15;;;16.80;99.90;;;;;;5073877;28;20238;-84
2022/06/03 06:05:26;;;;;;;10.50;10.20;;;16.90;99.90;;;;;;5069180;28;20233;-84
2022/06/03 06:08:13;;;;;;;10.60;10.30;;;17.00;99.90;;;;;;5064706;28;20227;-84
2022/06/03 06:11:03;;;;;;;10.77;10.48;;;17.10;99.90;;;;;;5030558;28;20254;-84
2022/06/03 06:13:59;;;;;;;10.70;10.40;;;17.20;99.90;;;;;;5043195;28;20263;-84
2022/06/03 06:16:35;;;;;;;10.75;10.45;;;17.30;99.90;;;;;;5071913;28;20227;-84
2022/06/03 06:19:13;;;;;;;10.80;10.50;;;17.40;99.90;;;;;;5070083;28;20251;-84
2022/06/03 06:22:00;;;;;;;10.50;10.20;;;17.60;99.90;;;;;;5053145;28;20287;-85
2022/06/03 06:24:53;;;;;;;10.80;10.50;;;17.70;99.90;;;;;;5046569;28;20298;-84
2022/06/03 06:28:01;;;;;;;10.80;10.50;;;17.80;99.90;;;;;;5043879;28;20263;-84
2022/06/03 06:31:14;;;;;;;10.73;10.43;;;18.00;99.90;;;;;;5029408;28;20239;-84
2022/06/03 06:34:18;;;;;;;10.65;10.35;;;18.10;99.90;;;;;;5044542;28;20226;-84
2022/06/03 06:37:41;;;;;;;11.00;10.70;;;18.30;99.90;;;;;;5043093;28;20250;-84
2022/06/03 06:40:29;;;;;;;10.93;10.63;;;18.40;99.90;;;;;;5046424;28;20243;-85
2022/06/03 06:43:08;;;;;;;11.00;10.70;;;18.60;99.90;;;;;;5053909;28;20315;-84
2022/06/03 06:45:54;;;;;;;10.73;10.43;;;18.70;99.90;;;;;;5032189;28;20222;-84
2022/06/03 06:48:40;;;;;;;10.88;10.57;;;18.90;99.90;;;;;;5029442;28;20236;-84
2022/06/03 06:51:45;;;;;;;10.85;10.55;;;19.00;99.90;;;;;;5027570;28;20280;-84
2022/06/03 06:54:24;;;;;;;10.45;10.15;;;19.10;99.90;;;;;;5041701;28;20234;-84
2022/06/03 06:59:49;;;;;;;10.70;10.40;;;19.30;99.90;;;;;;5023735;28;20231;-78
2022/06/03 07:02:31;;;;;;;10.40;10.10;;;19.50;99.90;;;;;;5031633;28;20310;-78
2022/06/03 07:05:07;;;;;;;10.00;9.70;;;19.60;99.90;;;;;;5035047;28;20231;-77
2022/06/03 07:07:40;;;;;;;9.98;9.68;;;19.70;99.90;;;;;;5036631;28;20270;-77
2022/06/03 07:10:12;;;;;;;9.95;9.65;;;19.70;99.90;;;;;;5036597;28;20235;-77
2022/06/03 07:12:48;;;;;;;10.30;10.00;;;19.70;99.90;;;;;;5036723;28;20228;-77
2022/06/03 07:15:26;;;;;;;9.93;9.63;;;19.70;99.90;;;;;;5037989;28;20281;-77
2022/06/03 07:21:06;;;;;;;10.20;9.90;;;19.90;99.90;;;;;;5038610;28;20231;-77
2022/06/03 07:23:41;;;;;;;10.60;10.30;;;20.00;99.90;;;;;;5045190;28;20329;-78
2022/06/03 07:26:17;;;;;;;10.93;10.63;;;20.10;99.90;;;;;;5036663;28;20242;-78
2022/06/03 07:28:51;;;;;;;10.55;10.25;;;20.20;99.90;;;;;;5036263;28;20231;-78
2022/06/03 07:31:29;;;;;;;10.60;10.30;;;20.40;99.90;;;;;;5034031;28;20325;-76
2022/06/03 07:34:05;;;;;;;10.48;10.18;;;20.50;99.90;;;;;;5035415;28;20318;-77
2022/06/03 07:36:46;;;;;;;10.25;9.95;;;20.60;99.90;;;;;;5015637;28;20232;-77
2022/06/03 07:39:45;;;;;;;10.40;10.10;;;20.80;99.90;;;;;;5016823;28;20220;-77
2022/06/03 07:42:20;;;;;;;10.23;9.93;;;21.10;99.90;;;;;;5031239;28;20240;-77
2022/06/03 07:45:01;;;;;;;10.40;10.10;;;21.30;99.90;;;;;;5036473;28;20235;-77
2022/06/03 07:47:35;;;;;;;10.30;10.00;;;21.50;99.90;;;;;;5043829;28;20237;-83
2022/06/03 07:50:15;;;;;;;10.48;10.18;;;21.60;99.90;;;;;;5044745;28;20235;-83
2022/06/03 07:52:50;;;;;;;10.50;10.20;;;21.80;99.90;;;;;;5044819;28;20235;-80
2022/06/03 07:55:23;;;;;;;10.20;9.90;;;21.90;99.90;;;;;;5043190;28;20235;-84
2022/06/03 07:57:55;;;;;;;10.10;9.80;;;22.20;99.90;;;;;;5044111;28;20238;-83
2022/06/03 08:00:28;;;;;;;10.30;10.00;;;22.30;99.90;;;;;;5043414;28;20290;-84
2022/06/03 08:03:07;;;;;;;10.20;9.90;;;22.40;99.90;;;;;;5031628;28;20294;-82
2022/06/03 08:05:35;;;;;;;10.18;9.88;;;22.60;99.90;;;;;;5050431;28;20294;-82
2022/06/03 08:11:00;;;;;;;10.80;10.50;;;22.70;99.90;;;;;;5043548;28;20224;-82
2022/06/03 08:13:31;;;;;;;10.52;10.23;;;22.70;99.90;;;;;;5042634;28;20227;-83
2022/06/03 08:16:04;;;;;;;10.57;10.27;;;22.80;99.90;;;;;;5042861;28;20440;-82
2022/06/03 08:18:40;;;;;;;10.82;10.52;;;23.00;99.90;;;;;;5043122;28;20234;-82
2022/06/03 08:21:12;;;;;;;10.70;10.40;;;23.10;99.90;;;;;;5043076;28;20234;-83
2022/06/03 08:23:40;;;;;;;10.90;10.60;;;23.20;99.90;;;;;;5045973;28;20231;-84
2022/06/03 08:26:17;;;;;;;10.77;10.48;;;23.30;99.90;;;;;;5044050;28;20699;-83
2022/06/03 08:28:51;;;;;;;10.85;10.55;;;23.50;99.90;;;;;;5044711;28;20231;-82
2022/06/03 08:31:23;;;;;;;10.77;10.48;;;23.70;99.90;;;;;;5044356;28;20283;-82
2022/06/03 08:33:58;;;;;;;11.00;10.70;;;23.90;99.90;;;;;;5047559;28;20231;-83
2022/06/03 08:36:29;;;;;;;10.85;10.55;;;24.10;99.90;;;;;;5044227;28;20255;-83
2022/06/03 08:39:03;;;;;;;10.82;10.52;;;24.30;99.90;;;;;;5037355;28;20334;-82
2022/06/03 08:41:58;;;;;;;10.23;9.93;;;24.40;99.90;;;;;;5042040;28;20246;-82
2022/06/03 08:44:47;;;;;;;10.20;9.90;;;24.50;99.90;;;;;;5043884;28;20271;-83
2022/06/03 08:47:23;;;;;;;10.20;9.90;;;24.60;99.90;;;;;;5048880;28;20238;-86
2022/06/03 08:50:03;;;;;;;10.00;9.70;;;24.70;99.90;;;;;;5054322;28;20239;-82
2022/06/03 08:52:50;;;;;;;10.50;10.20;;;24.60;99.90;;;;;;5044003;28;20226;-82
2022/06/03 08:55:37;;;;;;;10.23;9.93;;;24.70;99.90;;;;;;5044145;28;20235;-82
2022/06/03 08:58:23;;;;;;;10.80;10.50;;;24.90;99.90;;;;;;5023719;28;20252;-85
2022/06/03 09:01:00;;;;;;;10.80;10.50;;;25.10;99.90;;;;;;5023357;28;20271;-84
2022/06/03 09:03:31;;;;;;;10.70;10.40;;;25.30;99.90;;;;;;5023051;28;20268;-84
2022/06/03 09:06:11;;;;;;;10.57;10.27;;;25.40;99.90;;;;;;5024796;28;20251;-85
2022/06/03 09:08:46;;;;;;;10.55;10.25;;;25.50;99.90;;;;;;5024499;28;20231;-85
2022/06/03 09:14:05;;;;;;;10.52;10.23;;;25.80;99.90;;;;;;5021161;28;20216;-86
2022/06/03 09:19:28;;;;;;;10.43;10.13;;;26.50;99.90;;;;;;5035560;28;20212;-87
2022/06/03 09:22:15;;;;;;;10.77;10.48;;;26.70;99.90;;;;;;5040122;28;20224;-86
2022/06/03 09:24:44;;;;;;;10.65;10.35;;;27.10;99.90;;;;;;5040265;28;20220;-87
2022/06/03 09:27:16;;;;;;;10.80;10.50;;;27.30;99.90;;;;;;5049718;28;20220;-87
2022/06/03 09:29:52;;;;;;;10.75;10.45;;;27.30;99.90;;;;;;5046826;28;20338;-84
2022/06/03 09:32:23;;;;;;;10.80;10.50;;;27.20;99.90;;;;;;5041713;28;20297;-86
2022/06/03 09:34:53;;;;;;;10.88;10.57;;;27.40;99.90;;;;;;5043035;28;20228;-84
2022/06/03 09:37:29;;;;;;;10.57;10.27;;;27.40;99.90;;;;;;5046607;28;20274;-84
2022/06/03 09:39:59;;;;;;;10.65;10.35;;;27.40;99.90;;;;;;5053165;28;20262;-84
2022/06/03 09:42:27;;;;;;;10.98;10.68;;;27.60;99.90;;;;;;5050511;28;20224;-85
2022/06/03 09:44:56;;;;;;;10.90;10.60;;;27.50;99.90;;;;;;5045174;28;20239;-84
2022/06/03 09:47:28;;;;;;;10.90;10.60;;;27.30;99.90;;;;;;5043655;28;20299;-87
2022/06/03 09:50:02;;;;;;;10.82;10.52;;;27.40;99.90;;;;;;5044842;28;20239;-85
2022/06/03 09:52:31;;;;;;;10.90;10.60;;;27.50;99.90;;;;;;5043645;28;20250;-81
2022/06/03 09:55:23;;;;;;;11.50;11.20;;;27.70;99.90;;;;;;5042144;28;20224;-81
2022/06/03 09:57:51;;;;;;;11.20;10.90;;;27.80;99.90;;;;;;5042037;28;20322;-80
2022/06/03 10:00:23;;;;;;;11.18;10.88;;;28.00;99.90;;;;;;5041885;28;20235;-80
2022/06/03 10:02:52;;;;;;;10.90;10.60;;;28.00;99.90;;;;;;5042211;28;20323;-81
2022/06/03 10:05:21;;;;;;;10.40;10.10;;;28.00;99.90;;;;;;5045019;28;20231;-85
2022/06/03 10:08:00;;;;;;;10.25;9.95;;;27.80;99.90;;;;;;5046220;28;20262;-86
2022/06/03 10:13:16;;;;;;;10.10;9.80;;;27.90;99.90;;;;;;5043772;28;20212;-83
2022/06/03 10:15:56;;;;;;;10.07;9.77;;;28.00;99.90;;;;;;5043455;28;20239;-83
2022/06/03 10:18:35;;;;;;;10.05;9.75;;;28.10;99.90;;;;;;5041202;28;20352;-82
2022/06/03 10:21:30;;;;;;;10.02;9.73;;;28.00;99.90;;;;;;5043060;28;20338;-82
2022/06/03 10:24:02;;;;;;;10.45;10.15;;;28.20;99.90;;;;;;5042720;28;20227;-83
2022/06/03 10:26:36;;;;;;;10.70;10.40;;;28.40;99.90;;;;;;5021474;28;20240;-82
2022/06/03 10:29:10;;;;;;;10.60;10.30;;;28.50;99.90;;;;;;5022905;28;20718;-82
2022/06/03 10:31:37;;;;;;;10.98;10.68;;;28.60;99.90;;;;;;5022209;28;20259;-82
2022/06/03 10:34:14;;;;;;;10.88;10.57;;;28.60;99.90;;;;;;5023761;28;20246;-80
2022/06/03 10:36:45;;;;;;;10.48;10.18;;;28.50;99.90;;;;;;5024867;28;20253;-80
2022/06/03 11:13:46;;;;;;;11.13;10.82;;;30.70;99.90;;;;;;4979015;28;20317;-81
2022/06/03 11:16:16;;;;;;;11.27;10.98;;;30.70;99.90;;;;;;5073148;28;20234;-79
2022/06/03 11:18:45;;;;;;;10.82;10.52;;;30.70;99.90;;;;;;5111020;28;20294;-79
2022/06/03 11:21:24;;;;;;;10.85;10.55;;;30.70;99.90;;;;;;5090163;28;20261;-80
2022/06/03 11:23:52;;;;;;;11.07;10.77;;;30.80;99.90;;;;;;5092338;28;20237;-80
2022/06/03 11:26:22;;;;;;;10.75;10.45;;;31.10;99.90;;;;;;5085049;28;20233;-80
2022/06/03 11:29:02;;;;;;;10.85;10.55;;;31.20;99.90;;;;;;5099545;28;20289;-84
2022/06/03 11:31:39;;;;;;;10.85;10.55;;;31.20;99.90;;;;;;5088872;28;20234;-84
2022/06/03 11:34:17;;;;;;;11.10;10.80;;;31.30;99.90;;;;;;5105579;28;20299;-83
2022/06/03 11:36:56;;;;;;;11.32;11.02;;;31.40;99.90;;;;;;5105101;28;20237;-84
2022/06/03 11:39:34;;;;;;;11.30;11.00;;;31.50;99.90;;;;;;5104420;28;20316;-86
2022/06/03 11:45:18;;;;;;;11.02;10.73;;;31.70;99.90;;;;;;5079847;28;20221;-81
2022/06/03 11:48:12;;;;;;;10.95;10.65;;;31.80;99.90;;;;;;5081894;28;21064;-81
2022/06/03 11:50:42;;;;;;;11.35;11.05;;;32.00;99.90;;;;;;5068264;28;20234;-80
2022/06/03 11:53:11;;;;;;;11.02;10.73;;;32.20;99.90;;;;;;5085084;28;20320;-81
2022/06/03 11:55:40;;;;;;;10.98;10.68;;;32.30;99.90;;;;;;5088039;28;20226;-78
2022/06/03 11:58:20;;;;;;;10.90;10.60;;;31.90;99.90;;;;;;5086069;28;20297;-81
2022/06/03 12:00:59;;;;;;;10.65;10.35;;;31.60;99.90;;;;;;5084983;28;20238;-80
2022/06/03 12:03:39;;;;;;;10.70;10.40;;;31.00;99.90;;;;;;5082089;28;20269;-78
2022/06/03 12:06:18;;;;;;;10.65;10.35;;;31.20;99.90;;;;;;5081624;28;20230;-80
2022/06/03 12:08:53;;;;;;;10.70;10.40;;;31.10;99.90;;;;;;5082620;28;20234;-79
2022/06/03 12:14:36;;;;;;;11.20;10.90;;;30.60;99.90;;;;;;5082965;28;20293;-79
2022/06/03 12:17:34;;;;;;;10.80;10.50;;;30.90;99.90;;;;;;5082122;28;20253;-81
2022/06/03 12:20:37;;;;;;;11.23;10.93;;;31.70;99.90;;;;;;5080921;28;20269;-80
2022/06/03 12:23:58;;;;;;;10.88;10.57;;;32.50;99.90;;;;;;5063185;28;20290;-80
2022/06/03 12:26:31;;;;;;;10.80;10.50;;;32.70;99.90;;;;;;5058724;28;20272;-80
2022/06/03 12:29:17;;;;;;;11.02;10.73;;;32.70;99.90;;;;;;5069774;28;20258;-80
2022/06/03 12:31:47;;;;;;;10.95;10.65;;;32.50;99.90;;;;;;5077356;28;20236;-80
2022/06/03 12:34:31;;;;;;;11.00;10.70;;;32.60;99.90;;;;;;5083380;28;20284;-80
2022/06/03 12:37:02;;;;;;;11.13;10.82;;;33.00;99.90;;;;;;5082768;28;20265;-80
2022/06/03 12:39:33;;;;;;;10.80;10.50;;;33.00;99.90;;;;;;5080234;28;20223;-80
2022/06/03 12:42:11;;;;;;;10.90;10.60;;;32.80;99.90;;;;;;5081840;28;20234;-80
2022/06/03 12:45:14;;;;;;;11.48;11.18;;;32.40;99.90;;;;;;5082671;28;20245;-80
2022/06/03 12:47:51;;;;;;;11.18;10.88;;;32.10;99.90;;;;;;5081575;28;20240;-80
2022/06/03 12:51:23;;;;;;;11.10;10.80;;;31.50;99.90;;;;;;5081290;28;20306;-80
2022/06/03 12:53:53;;;;;;;11.45;11.15;;;30.90;99.90;;;;;;5081839;28;20236;-81
2022/06/03 12:59:29;;;;;;;11.30;11.00;;;30.30;99.90;;;;;;5081890;28;20288;-81
2022/06/03 13:02:04;;;;;;;11.20;10.90;;;30.20;99.90;;;;;;5081970;28;20244;-81
2022/06/03 13:04:51;;;;;;;11.55;11.18;;;30.30;99.90;;;;;;5071861;28;20232;-81
2022/06/03 13:08:04;;;;;;;11.77;11.38;;;30.50;99.90;;;;;;5102340;28;20268;-81
2022/06/03 13:11:01;;;;;;;11.90;11.50;;;30.70;99.90;;;;;;5087698;28;20241;-81
2022/06/03 13:14:14;;;;;;;10.95;10.65;;;31.10;99.90;;;;;;5101622;28;20288;-80
2022/06/03 13:16:53;;;;;;;10.80;10.50;;;31.50;99.90;;;;;;5100787;28;20233;-80
2022/06/03 13:20:09;;;;;;;11.02;10.73;;;31.80;99.90;;;;;;5087564;28;20255;-80
2022/06/03 13:22:57;;;;;;;10.90;10.60;;;32.10;99.90;;;;;;5070734;28;20234;-81
2022/06/03 13:25:40;;;;;;;10.90;10.60;;;32.40;99.90;;;;;;5091760;28;20279;-80
2022/06/03 13:28:36;;;;;;;11.05;10.75;;;32.20;99.90;;;;;;5082782;28;20258;-81
2022/06/03 13:31:23;;;;;;;10.57;10.27;;;32.20;99.90;;;;;;5081956;28;20226;-81
2022/06/03 13:34:46;;;;;;;10.68;10.38;;;32.40;99.90;;;;;;5080599;28;20277;-82
2022/06/03 13:37:50;;;;;;;10.70;10.40;;;32.30;99.90;;;;;;5080688;28;20256;-81
2022/06/03 13:40:38;;;;;;;10.65;10.35;;;32.40;99.90;;;;;;5063129;28;20241;-82
2022/06/03 13:43:46;;;;;;;10.75;10.45;;;32.80;99.90;;;;;;5081481;28;20226;-82
2022/06/03 13:46:40;;;;;;;10.70;10.40;;;33.30;99.90;;;;;;5080653;28;20250;-83
2022/06/03 14:48:54;;;;;;;10.38;10.07;;;30.70;99.90;;;;;;5022547;28;20224;-82
2022/06/03 14:52:09;;;;;;;10.30;10.00;;;30.40;99.90;;;;;;5036352;28;20231;-82
2022/06/03 14:55:10;;;;;;;10.18;9.88;;;30.50;99.90;;;;;;5043845;28;20247;-82
2022/06/03 15:13:42;;;;;;;9.80;9.50;;;30.00;99.90;;;;;;4978480;28;20293;-82
2022/06/03 15:21:04;;;;;;;9.77;9.48;;;29.50;99.90;;;;;;4977947;28;20241;-82
2022/06/03 15:29:47;;;;;;;10.10;9.80;;;29.40;99.90;;;;;;5038333;28;20222;-82
2022/06/03 15:32:19;;;;;;;9.63;9.32;;;29.40;99.90;;;;;;5043883;28;20263;-82
2022/06/03 15:34:47;;;;;;;9.40;9.10;;;29.40;99.90;;;;;;5044254;28;20227;-82
2022/06/03 15:37:30;;;;;;;9.60;9.30;;;29.50;99.90;;;;;;5045115;28;20223;-82
2022/06/03 15:40:04;;;;;;;9.80;9.50;;;29.60;99.90;;;;;;5043179;28;20238;-82
2022/06/03 15:42:41;;;;;;;9.55;9.25;;;29.50;99.90;;;;;;5039998;28;20241;-81
2022/06/03 15:48:33;;;;;;;10.05;9.75;;;29.10;99.90;;;;;;5042642;28;20436;-82
2022/06/03 15:51:11;;;;;;;10.27;9.98;;;28.90;99.90;;;;;;5042852;28;20223;-83
2022/06/03 15:53:51;;;;;;;9.80;9.50;;;28.60;99.90;;;;;;5040263;28;20262;-78
2022/06/03 15:56:48;;;;;;;9.60;9.30;;;28.10;99.90;;;;;;5041230;28;20247;-80
2022/06/03 15:59:34;;;;;;;9.70;9.40;;;26.90;99.90;;;;;;5042403;28;20295;-80
2022/06/03 16:02:11;;;;;;;9.90;9.60;;;25.80;99.90;;;;;;5041760;28;20239;-78
2022/06/03 16:05:00;;;;;;;9.68;9.38;;;24.80;99.90;;;;;;5041244;28;20273;-81
2022/06/03 16:07:49;;;;;;;9.55;9.25;;;24.20;99.90;;;;;;5041808;28;20259;-81
2022/06/03 16:10:32;;;;;;;9.60;9.30;;;24.00;99.90;;;;;;5048970;28;20223;-81
2022/06/03 16:13:20;;;;;;;10.07;9.77;;;23.80;99.90;;;;;;5043772;28;20224;-81
2022/06/03 16:16:09;;;;;;;10.07;9.77;;;23.80;99.90;;;;;;5040761;28;20231;-81
2022/06/03 16:19:20;;;;;;;9.90;9.60;;;23.70;99.90;;;;;;5044929;28;20304;-80
2022/06/03 16:22:07;;;;;;;10.10;9.80;;;23.60;99.90;;;;;;5036531;28;20250;-80
2022/06/03 16:24:45;;;;;;;10.25;9.95;;;23.30;99.90;;;;;;5041732;28;20223;-81
2022/06/03 16:27:45;;;;;;;10.07;9.77;;;23.00;99.90;;;;;;5044842;28;20231;-80
2022/06/03 16:30:19;;;;;;;10.40;10.10;;;22.80;99.90;;;;;;5045813;28;20251;-80
2022/06/03 16:33:00;;;;;;;10.65;10.35;;;22.70;99.90;;;;;;5044085;28;20247;-81
2022/06/03 16:35:35;;;;;;;10.50;10.20;;;22.40;99.90;;;;;;5043374;28;20227;-81
2022/06/03 16:38:16;;;;;;;10.50;10.20;;;22.20;99.90;;;;;;5043319;28;20238;-81
2022/06/03 16:40:54;;;;;;;10.40;10.10;;;21.90;99.90;;;;;;5045635;28;20235;-79
2022/06/03 16:43:33;;;;;;;10.45;10.15;;;21.90;99.90;;;;;;5047517;28;20355;-81
2022/06/03 16:46:17;;;;;;;10.48;10.18;;;22.00;99.90;;;;;;5044336;28;20255;-82
2022/06/03 16:49:14;;;;;;;10.35;10.05;;;22.10;99.90;;;;;;5057901;22;20342;-76
2022/06/03 16:51:56;;;;;;;10.32;10.02;;;22.10;99.90;;;;;;5037182;28;20236;-76
2022/06/03 16:54:30;;;;;;;10.30;10.00;;;22.10;99.90;;;;;;5014236;28;20236;-76
2022/06/03 16:57:02;;;;;;;10.40;10.10;;;22.00;99.90;;;;;;5014400;28;20222;-76
2022/06/03 16:59:32;;;;;;;10.55;10.25;;;22.00;99.90;;;;;;5013536;28;20256;-76
2022/06/03 17:02:01;;;;;;;10.25;9.95;;;21.90;99.90;;;;;;5013152;28;20235;-76
2022/06/03 17:04:40;;;;;;;10.48;10.18;;;21.60;99.90;;;;;;5022308;28;20315;-76
2022/06/03 17:07:08;;;;;;;10.40;10.10;;;21.60;99.90;;;;;;5032677;28;20432;-75
2022/06/03 17:09:41;;;;;;;10.00;9.70;;;21.80;99.90;;;;;;5033536;28;20534;-76
2022/06/03 17:12:15;;;;;;;10.10;9.80;;;22.30;99.90;;;;;;5034165;28;20589;-76
2022/06/03 17:14:46;;;;;;;9.95;9.65;;;22.70;99.90;;;;;;5033266;28;20239;-76
2022/06/03 17:17:21;;;;;;;10.20;9.90;;;22.90;99.90;;;;;;5033145;28;20235;-76
2022/06/03 17:19:52;;;;;;;10.10;9.80;;;22.90;99.90;;;;;;5033256;28;20237;-76